Time;durP1;ratioP1;P1;durP2;ratioP2;P2;SDS_P1;SDS_P2;PMS_P1;PMS_P2;Temp;Humidity;BMP_temperature;BMP_pressure;BME280_temperature;BME280_humidity;BME280_pressure;Samples;Min_cycle;Max_cycle;Signal;HPM_P1;HPM_P2
2022/12/29 00:02:46;;;;;;;1.83;1.10;;;;;;;8.94;76.09;99172.47;10484455;28;20140;-79
2022/12/29 00:07:49;;;;;;;3.72;1.20;;;;;;;8.87;76.95;99190.94;10462169;28;20040;-79
2022/12/29 00:18:13;;;;;;;1.33;1.00;;;;;;;8.64;77.66;99179.69;10506138;28;20045;-77
2022/12/29 00:44:51;;;;;;;1.27;1.17;;;;;;;9.08;77.01;99126.50;10505820;28;20041;-78
2022/12/29 00:49:56;;;;;;;1.48;0.82;;;;;;;8.96;77.18;99123.13;10487996;28;20041;-78
2022/12/29 00:54:58;;;;;;;1.30;0.70;;;;;;;9.35;75.61;99117.66;10495244;28;20037;-76
2022/12/29 01:00:02;;;;;;;1.10;0.73;;;;;;;9.00;76.89;99118.34;10532695;28;20066;-78
2022/12/29 01:05:07;;;;;;;2.08;0.98;;;;;;;9.40;75.53;99117.19;10487060;28;20044;-78
2022/12/29 01:10:14;;;;;;;1.73;0.75;;;;;;;9.47;75.33;99110.28;10490634;28;20044;-76
2022/12/29 01:15:17;;;;;;;0.73;0.73;;;;;;;9.08;75.90;99083.63;10497298;28;20029;-76
2022/12/29 01:20:21;;;;;;;0.82;0.70;;;;;;;9.18;76.07;99105.84;10508348;28;20060;-77
2022/12/29 01:25:24;;;;;;;1.38;0.70;;;;;;;9.06;76.65;99083.78;10483971;28;20041;-77
2022/12/29 01:30:27;;;;;;;2.10;0.60;;;;;;;9.23;75.79;99076.78;10466282;28;20045;-78
2022/12/29 01:35:31;;;;;;;3.25;0.75;;;;;;;9.39;75.94;99070.81;10472983;28;20048;-78
2022/12/29 01:40:34;;;;;;;0.50;0.50;;;;;;;9.37;77.09;99056.69;10466747;28;20060;-77
2022/12/29 01:45:37;;;;;;;;;;;;;;;8.94;78.90;99054.63;10471541;28;20123;-77
2022/12/29 01:50:46;;;;;;;1.02;0.60;;;;;;;8.91;80.14;99052.25;10483658;28;20332;-77
2022/12/29 01:55:53;;;;;;;1.05;0.60;;;;;;;9.19;79.03;99034.38;10456742;28;20056;-77
2022/12/29 02:00:57;;;;;;;1.95;0.57;;;;;;;9.43;78.22;99023.94;10486180;28;20044;-77
2022/12/29 02:06:08;;;;;;;0.93;0.40;;;;;;;9.40;77.90;99031.44;10456599;28;20068;-78
2022/12/29 02:11:13;;;;;;;0.50;0.32;;;;;;;9.44;78.38;99033.69;10460997;28;20051;-75
2022/12/29 02:16:30;;;;;;;0.30;0.30;;;;;;;8.60;84.81;99044.44;10475969;28;20538;-78
2022/12/29 02:22:06;;;;;;;1.17;0.30;;;;;;;8.44;88.15;99052.19;10433328;28;20383;-78
2022/12/29 02:27:29;;;;;;;0.60;0.52;;;;;;;8.33;90.63;99019.25;10479231;28;20041;-78
2022/12/29 02:32:40;;;;;;;0.40;0.40;;;;;;;8.42;89.49;99014.88;10480769;28;20040;-78
2022/12/29 02:37:50;;;;;;;1.35;0.40;;;;;;;8.17;89.70;99027.88;10451255;28;20045;-78
2022/12/29 02:43:00;;;;;;;0.50;0.50;;;;;;;8.77;87.26;99011.56;10494689;28;20072;-78
2022/12/29 02:48:14;;;;;;;0.30;0.20;;;;;;;8.72;86.09;99011.19;10481183;28;20047;-78
2022/12/29 02:54:40;;;;;;;1.25;0.30;;;;;;;9.13;84.18;99000.13;10462252;28;20045;-78
2022/12/29 02:58:43;;;;;;;0.32;0.30;;;;;;;8.84;83.83;98996.59;10484206;28;20049;-78
2022/12/29 03:04:04;;;;;;;0.43;0.43;;;;;;;9.37;81.28;98989.69;10483735;28;20636;-79
2022/12/29 03:09:19;;;;;;;0.20;0.20;;;;;;;9.23;80.55;98980.34;10471497;28;20090;-78
2022/12/29 03:19:56;;;;;;;0.93;0.40;;;;;;;9.39;78.89;98973.50;10475975;28;20068;-78
2022/12/29 03:25:03;;;;;;;0.30;0.30;;;;;;;9.64;78.12;98953.97;10452620;28;20399;-78
2022/12/29 03:30:08;;;;;;;0.73;0.20;;;;;;;9.56;78.04;98961.94;10489517;28;20647;-78
2022/12/29 03:35:17;;;;;;;0.10;0.10;;;;;;;9.47;77.70;98974.41;10472716;28;20098;-78
2022/12/29 03:40:23;;;;;;;0.10;0.10;;;;;;;9.47;76.98;98973.56;10466041;28;20043;-77
2022/12/29 03:45:26;;;;;;;0.30;0.20;;;;;;;9.61;76.77;98969.53;10450899;28;20072;-78
2022/12/29 03:50:31;;;;;;;0.20;0.20;;;;;;;9.86;75.40;98933.06;10462274;28;20049;-78
2022/12/29 03:55:34;;;;;;;1.45;0.20;;;;;;;9.54;75.64;98933.59;10497920;28;20511;-78
2022/12/29 04:00:37;;;;;;;0.50;0.20;;;;;;;9.64;74.84;98988.81;10449701;28;20045;-77
2022/12/29 04:05:41;;;;;;;0.30;0.20;;;;;;;9.82;73.78;98937.00;10477844;28;20043;-79
2022/12/29 04:10:44;;;;;;;0.10;0.10;;;;;;;9.50;74.12;98963.38;10475433;28;20171;-78
2022/12/29 04:15:49;;;;;;;0.20;0.20;;;;;;;9.67;73.09;98948.28;10461010;28;20048;-78
2022/12/29 04:21:00;;;;;;;0.77;0.30;;;;;;;9.97;72.22;98938.19;10481185;28;20040;-78
2022/12/29 04:26:06;;;;;;;0.77;0.20;;;;;;;10.09;72.03;98963.78;10463470;28;20502;-78
2022/12/29 04:31:14;;;;;;;0.90;0.30;;;;;;;9.49;74.27;98944.78;10464973;28;20048;-78
2022/12/29 04:36:20;;;;;;;2.20;0.55;;;;;;;9.71;73.77;98943.50;10486919;28;20055;-78
2022/12/29 04:41:31;;;;;;;;;;;;;;;9.69;74.30;98956.19;10506163;28;20041;-78
2022/12/29 04:46:35;;;;;;;0.52;0.38;;;;;;;9.48;76.53;99002.06;10474810;28;19921;-78
2022/12/29 04:51:46;;;;;;;0.20;0.20;;;;;;;8.86;81.45;98950.94;10472729;28;20045;-77
2022/12/29 04:56:50;;;;;;;1.60;0.40;;;;;;;9.08;81.11;98949.72;10489718;28;20055;-76
2022/12/29 05:01:54;;;;;;;2.20;0.57;;;;;;;8.66;83.01;98946.66;10462835;28;20041;-77
2022/12/29 05:06:58;;;;;;;1.27;0.20;;;;;;;8.76;82.77;98928.72;10448468;28;20501;-78
2022/12/29 05:12:02;;;;;;;0.65;0.50;;;;;;;8.81;84.67;98929.13;10451778;28;20048;-77
2022/12/29 05:17:08;;;;;;;0.40;0.22;;;;;;;8.51;86.11;98924.88;10463594;28;20132;-78
2022/12/29 05:22:12;;;;;;;0.95;0.30;;;;;;;8.77;84.54;98930.41;10478065;28;20139;-78
2022/12/29 05:27:17;;;;;;;1.15;0.40;;;;;;;8.73;84.26;98912.97;10471941;28;20075;-78
2022/12/29 05:32:27;;;;;;;0.28;0.28;;;;;;;8.81;82.34;98894.31;10497413;28;20096;-79
2022/12/29 05:37:31;;;;;;;6.53;1.48;;;;;;;9.03;82.84;98903.78;10507833;28;20060;-79
2022/12/29 05:42:34;;;;;;;0.50;0.40;;;;;;;8.98;82.00;98896.19;10500256;28;20060;-77
2022/12/29 05:47:56;;;;;;;0.30;0.30;;;;;;;9.19;80.27;98887.88;10517200;28;20033;-78
2022/12/29 05:53:16;;;;;;;2.60;0.38;;;;;;;9.35;78.63;98924.72;10524295;28;20041;-77
2022/12/29 05:58:21;;;;;;;2.60;0.20;;;;;;;9.38;77.89;98888.72;10498065;28;20083;-76
2022/12/29 06:03:24;;;;;;;0.20;0.20;;;;;;;9.63;76.33;98881.75;10501110;28;20540;-79
2022/12/29 06:08:28;;;;;;;1.45;0.20;;;;;;;9.53;75.81;98921.19;10494157;28;20120;-78
2022/12/29 06:13:31;;;;;;;0.73;0.17;;;;;;;9.99;74.11;98887.09;10495887;28;20044;-78
2022/12/29 06:18:35;;;;;;;1.15;0.35;;;;;;;9.76;73.56;98897.41;10473502;28;20172;-80
2022/12/29 06:23:39;;;;;;;0.90;0.30;;;;;;;10.04;72.89;98874.88;10462583;28;20049;-80
2022/12/29 06:28:42;;;;;;;1.55;0.35;;;;;;;9.70;75.14;98939.09;10478261;28;20036;-79
2022/12/29 06:33:45;;;;;;;1.90;0.40;;;;;;;7.41;100.00;98949.34;10468569;28;20048;-81
2022/12/29 06:38:53;;;;;;;1.33;0.30;;;;;;;6.78;100.00;98986.94;10481946;28;20409;-82
2022/12/29 06:43:58;;;;;;;1.88;0.30;;;;;;;6.76;100.00;98955.03;10477670;28;20067;-81
2022/12/29 06:49:19;;;;;;;0.52;0.20;;;;;;;6.98;100.00;98961.19;10486458;28;20675;-81
2022/12/29 06:54:26;;;;;;;0.30;0.30;;;;;;;6.89;100.00;98967.34;10456787;28;20052;-81
2022/12/29 06:59:30;;;;;;;2.35;0.30;;;;;;;7.16;100.00;98993.41;10484518;28;20063;-80
2022/12/29 07:04:33;;;;;;;0.90;0.60;;;;;;;7.18;100.00;98999.47;10479100;28;20052;-80
2022/12/29 07:09:37;;;;;;;3.70;0.77;;;;;;;7.46;99.44;98997.84;10474220;28;20047;-79
2022/12/29 07:14:40;;;;;;;4.20;0.70;;;;;;;7.53;97.07;99014.19;10477382;28;20044;-81
2022/12/29 07:19:45;;;;;;;2.60;0.68;;;;;;;7.41;98.58;99016.13;10497778;28;20100;-83
2022/12/29 07:24:49;;;;;;;0.90;0.50;;;;;;;7.42;97.25;99018.66;10516869;28;20047;-80
2022/12/29 07:29:52;;;;;;;3.53;0.70;;;;;;;7.39;95.97;99026.09;10464811;28;20160;-80
2022/12/29 07:34:55;;;;;;;4.00;0.70;;;;;;;7.23;91.21;99008.75;10492760;28;20063;-78
2022/12/29 07:39:59;;;;;;;3.13;0.77;;;;;;;7.88;88.92;99019.00;10492522;28;20077;-80
2022/12/29 07:45:02;;;;;;;2.97;0.65;;;;;;;7.70;86.85;99019.66;10483470;28;20041;-77
2022/12/29 07:50:22;;;;;;;2.20;0.55;;;;;;;7.67;84.61;99030.66;10534403;28;20040;-78
2022/12/29 07:55:27;;;;;;;2.95;0.45;;;;;;;7.79;83.93;99052.78;10485766;28;20071;-78
2022/12/29 08:00:30;;;;;;;3.22;1.00;;;;;;;7.90;83.14;99047.28;10483575;28;20048;-81
2022/12/29 08:05:35;;;;;;;5.97;1.15;;;;;;;8.03;81.54;99060.38;10508156;28;20134;-79
2022/12/29 08:10:39;;;;;;;2.70;0.60;;;;;;;8.13;81.06;99058.53;10487250;28;20033;-80
2022/12/29 08:15:42;;;;;;;2.20;0.73;;;;;;;8.15;80.33;99045.03;10476225;28;20097;-80
2022/12/29 08:20:45;;;;;;;1.45;0.70;;;;;;;8.21;80.33;99067.69;10505254;28;20060;-83
2022/12/29 08:25:59;;;;;;;2.95;0.82;;;;;;;8.39;79.63;99074.88;10482505;28;20053;-80
2022/12/29 08:31:03;;;;;;;4.03;0.88;;;;;;;8.43;78.69;99067.41;10494386;28;20045;-80
2022/12/29 08:36:08;;;;;;;3.63;0.90;;;;;;;8.67;78.23;99084.88;10476573;28;20390;-80
2022/12/29 08:41:12;;;;;;;13.15;1.92;;;;;;;8.56;77.64;99085.88;10478095;28;20048;-80
2022/12/29 08:46:15;;;;;;;5.38;1.25;;;;;;;8.45;76.45;99086.84;10476624;28;20494;-80
2022/12/29 08:51:18;;;;;;;2.00;1.13;;;;;;;8.85;75.59;99088.47;10488780;28;20037;-79
2022/12/29 08:56:28;;;;;;;4.05;1.05;;;;;;;8.82;78.57;99094.97;10482555;28;20113;-81
2022/12/29 09:01:36;;;;;;;2.85;1.40;;;;;;;8.54;80.19;99103.91;10447919;28;20045;-81
2022/12/29 09:06:39;;;;;;;1.42;0.85;;;;;;;8.55;80.06;99093.03;10488351;28;20494;-81
2022/12/29 09:11:44;;;;;;;8.43;3.15;;;;;;;8.88;80.12;99117.63;10464083;28;20068;-79
2022/12/29 09:22:07;;;;;;;2.50;1.15;;;;;;;8.44;81.18;99095.84;10466921;28;20037;-77
2022/12/29 09:27:11;;;;;;;2.97;1.02;;;;;;;8.79;80.17;99110.47;10438682;28;20113;-77
2022/12/29 09:32:14;;;;;;;5.47;1.38;;;;;;;9.71;78.39;99107.03;10447377;28;20043;-78
2022/12/29 09:37:21;;;;;;;3.15;1.10;;;;;;;9.61;75.94;99114.28;10466320;28;20037;-79
2022/12/29 09:42:30;;;;;;;1.75;0.77;;;;;;;9.24;77.48;99120.50;10446054;28;20462;-80
2022/12/29 09:47:33;;;;;;;2.47;1.00;;;;;;;9.98;75.92;99134.84;10417030;28;20706;-79
2022/12/29 09:52:39;;;;;;;5.10;0.98;;;;;;;9.38;74.84;99124.53;10380520;28;20106;-78
2022/12/29 09:57:47;;;;;;;1.95;0.82;;;;;;;9.02;75.09;99137.75;10337083;28;20053;-78
2022/12/29 10:02:55;;;;;;;4.57;1.20;;;;;;;8.87;74.23;99133.88;10393804;28;20064;-79
2022/12/29 10:08:12;;;;;;;2.22;1.15;;;;;;;9.31;72.19;99126.97;10407347;28;20057;-79
2022/12/29 10:13:34;;;;;;;3.78;1.17;;;;;;;9.09;71.79;99114.78;10390647;28;20045;-78
2022/12/29 10:18:58;;;;;;;3.50;0.98;;;;;;;8.93;71.34;99107.34;10387117;28;20053;-77
2022/12/29 10:24:05;;;;;;;7.63;1.00;;;;;;;9.05;68.90;99124.94;10402103;28;20780;-76
2022/12/29 10:29:16;;;;;;;2.55;0.75;;;;;;;9.76;66.62;99119.97;10414499;28;20174;-76
2022/12/29 10:34:24;;;;;;;5.75;1.10;;;;;;;10.17;66.30;99107.88;10393304;28;20502;-77
2022/12/29 10:39:32;;;;;;;3.33;0.82;;;;;;;10.30;65.46;99134.34;10377668;28;20068;-76
2022/12/29 10:44:38;;;;;;;3.70;1.02;;;;;;;10.65;64.42;99113.84;10376045;28;20046;-77
2022/12/29 10:49:46;;;;;;;5.15;1.05;;;;;;;10.09;63.36;99121.22;10372806;28;20155;-78
2022/12/29 10:54:53;;;;;;;7.15;1.38;;;;;;;10.45;63.21;99130.16;10390090;28;20122;-76
2022/12/29 10:59:58;;;;;;;5.20;0.85;;;;;;;9.87;62.23;99123.34;10371621;28;20053;-78
2022/12/29 11:05:04;;;;;;;6.47;0.80;;;;;;;9.79;62.75;99122.38;10357817;28;20236;-77
2022/12/29 11:10:19;;;;;;;4.10;1.08;;;;;;;9.57;62.48;99116.44;10364969;28;20068;-76
2022/12/29 11:15:23;;;;;;;6.80;1.15;;;;;;;9.75;62.86;99129.03;10366087;28;20057;-76
2022/12/29 11:20:32;;;;;;;4.55;1.02;;;;;;;9.87;62.53;99114.44;10369023;28;21315;-77
2022/12/29 11:25:35;;;;;;;7.72;1.38;;;;;;;9.42;66.01;99117.91;10373516;28;20049;-76
2022/12/29 11:30:39;;;;;;;5.13;0.47;;;;;;;9.29;65.53;99107.50;10369467;28;20699;-78
2022/12/29 11:35:44;;;;;;;3.50;0.73;;;;;;;9.24;64.92;99134.75;10375030;28;20417;-77
2022/12/29 11:40:47;;;;;;;4.88;0.80;;;;;;;9.46;64.54;99120.16;10379872;28;20056;-76
2022/12/29 11:45:53;;;;;;;2.33;0.85;;;;;;;9.50;63.90;99131.41;10391855;28;20045;-76
2022/12/29 11:51:00;;;;;;;8.88;0.85;;;;;;;9.50;64.52;99129.56;10364474;28;20080;-77
2022/12/29 11:56:07;;;;;;;4.75;0.70;;;;;;;9.64;64.60;99119.34;10386248;28;21180;-77
2022/12/29 12:01:20;;;;;;;9.23;1.00;;;;;;;9.57;63.98;99134.34;10401868;28;20053;-77
2022/12/29 12:06:24;;;;;;;3.83;0.80;;;;;;;9.56;64.12;99120.09;10393122;28;20053;-77
2022/12/29 12:11:36;;;;;;;4.70;0.88;;;;;;;9.41;63.98;99126.94;10391786;28;20053;-77
2022/12/29 12:16:44;;;;;;;4.15;1.00;;;;;;;9.28;63.73;99132.63;10373637;28;20041;-77
2022/12/29 12:21:53;;;;;;;2.85;0.80;;;;;;;9.47;62.90;99132.56;10393499;28;20042;-77
2022/12/29 12:27:00;;;;;;;4.43;0.57;;;;;;;9.44;62.40;99143.56;10408445;28;20040;-78
2022/12/29 12:32:12;;;;;;;3.70;0.85;;;;;;;9.33;62.83;99143.75;10375939;28;20049;-77
2022/12/29 12:37:54;;;;;;;2.87;1.23;;;;;;;9.38;61.85;99143.28;10388383;28;20049;-77
2022/12/29 12:43:14;;;;;;;6.45;1.08;;;;;;;9.62;61.30;99169.59;10390724;28;20048;-77
2022/12/29 12:48:39;;;;;;;6.53;1.13;;;;;;;9.18;62.48;99175.50;10396422;28;20057;-76
2022/12/29 12:53:54;;;;;;;3.70;1.08;;;;;;;9.44;61.98;99182.94;10384492;28;20494;-78
2022/12/29 12:59:04;;;;;;;5.57;0.80;;;;;;;9.19;62.39;99187.94;10291275;28;20053;-77
2022/12/29 13:04:34;;;;;;;4.60;0.95;;;;;;;9.35;62.58;99173.94;10351813;28;20057;-77
2022/12/29 13:09:51;;;;;;;7.05;1.65;;;;;;;9.18;63.47;99202.31;10359363;28;20042;-77
2022/12/29 13:15:09;;;;;;;6.82;1.23;;;;;;;9.31;63.15;99199.31;10370364;28;21138;-76
2022/12/29 13:20:25;;;;;;;9.35;1.25;;;;;;;9.17;63.34;99211.34;10358071;28;20061;-77
2022/12/29 13:25:41;;;;;;;3.42;1.10;;;;;;;9.40;62.65;99219.88;10354333;28;20533;-76
2022/12/29 13:30:49;;;;;;;4.88;1.08;;;;;;;9.43;62.77;99222.25;10345931;28;20045;-77
2022/12/29 13:36:01;;;;;;;2.05;0.80;;;;;;;8.92;63.85;99233.38;10374149;28;20132;-76
2022/12/29 13:41:09;;;;;;;4.35;1.15;;;;;;;8.95;63.67;99252.69;10346575;28;20133;-79
2022/12/29 13:46:18;;;;;;;5.20;0.85;;;;;;;9.41;63.02;99232.31;10353022;28;20058;-77
2022/12/29 13:51:24;;;;;;;2.58;0.82;;;;;;;8.92;63.58;99238.72;10355457;28;20049;-77
2022/12/29 13:56:37;;;;;;;9.68;1.58;;;;;;;8.91;66.18;99272.66;10358566;28;20046;-79
2022/12/29 14:01:44;;;;;;;6.75;1.58;;;;;;;8.71;67.22;99290.56;10335263;28;20046;-78
2022/12/29 14:07:00;;;;;;;5.75;1.63;;;;;;;8.87;66.21;99275.78;10364947;28;20045;-78
2022/12/29 14:12:22;;;;;;;5.47;1.40;;;;;;;9.13;65.79;99284.94;10347973;28;20060;-77
2022/12/29 14:17:25;;;;;;;4.60;1.55;;;;;;;8.93;65.86;99286.78;10350189;28;20053;-78
2022/12/29 14:22:29;;;;;;;4.72;1.15;;;;;;;8.94;65.88;99298.34;10362928;28;20517;-78
2022/12/29 14:27:53;;;;;;;6.35;1.42;;;;;;;8.98;65.05;99300.59;10350096;28;20046;-77
2022/12/29 14:33:14;;;;;;;5.80;1.15;;;;;;;8.74;65.61;99316.22;10360483;28;20088;-77
2022/12/29 14:38:21;;;;;;;5.97;1.60;;;;;;;8.77;65.83;99315.94;10332060;28;20140;-77
2022/12/29 14:43:27;;;;;;;3.97;0.88;;;;;;;8.76;67.60;99322.28;10332678;28;20048;-76
2022/12/29 14:48:37;;;;;;;1.65;0.75;;;;;;;8.36;68.73;99321.31;10328366;28;20046;-77
2022/12/29 14:53:47;;;;;;;7.25;1.10;;;;;;;8.56;67.41;99318.75;10347558;28;20045;-77
2022/12/29 14:58:54;;;;;;;5.07;1.50;;;;;;;8.85;67.43;99326.81;10349018;28;20504;-77
2022/12/29 15:04:01;;;;;;;4.97;1.63;;;;;;;8.54;67.28;99310.00;10371337;28;20135;-77
2022/12/29 15:09:11;;;;;;;7.07;1.58;;;;;;;8.65;67.17;99335.78;10357125;28;20049;-77
2022/12/29 15:14:49;;;;;;;6.07;1.75;;;;;;;9.17;66.03;99339.09;10344501;28;20060;-77
2022/12/29 15:19:52;;;;;;;7.15;1.40;;;;;;;9.01;66.31;99336.97;10323443;28;20051;-77
2022/12/29 15:24:58;;;;;;;7.72;1.83;;;;;;;8.89;65.98;99346.97;10330923;28;20052;-76
2022/12/29 15:30:09;;;;;;;7.00;0.98;;;;;;;9.01;65.02;99355.72;10332873;28;22006;-76
2022/12/29 15:35:28;;;;;;;3.28;1.20;;;;;;;8.97;64.75;99354.31;10331926;28;20100;-76
2022/12/29 15:40:33;;;;;;;3.97;1.63;;;;;;;8.87;65.06;99367.69;10333954;28;20046;-77
2022/12/29 15:45:36;;;;;;;5.85;2.35;;;;;;;9.06;64.13;99374.91;10337517;28;20059;-77
2022/12/29 15:50:42;;;;;;;5.07;1.40;;;;;;;8.93;64.08;99371.63;10349243;28;20597;-78
2022/12/29 15:55:47;;;;;;;9.25;1.77;;;;;;;9.04;63.77;99377.72;10348460;28;20095;-76
2022/12/29 16:00:52;;;;;;;4.55;1.15;;;;;;;9.12;63.74;99384.22;10370130;28;20129;-77
2022/12/29 16:05:57;;;;;;;5.47;1.92;;;;;;;9.07;63.59;99392.66;10352238;28;20612;-77
2022/12/29 16:11:03;;;;;;;2.92;1.38;;;;;;;8.98;64.04;99413.09;10349720;28;20407;-77
2022/12/29 16:16:15;;;;;;;6.53;1.60;;;;;;;8.74;65.87;99396.53;10351983;28;20057;-76
2022/12/29 16:21:22;;;;;;;3.25;1.27;;;;;;;8.91;64.85;99395.03;10355661;28;20078;-77
2022/12/29 16:26:26;;;;;;;3.72;1.83;;;;;;;8.94;64.88;99390.25;10352124;28;20046;-76
2022/12/29 16:31:35;;;;;;;2.33;1.25;;;;;;;8.65;65.95;99389.34;10356488;28;20054;-77
2022/12/29 16:36:52;;;;;;;7.97;1.75;;;;;;;8.89;64.89;99392.50;10368410;28;20140;-77
2022/12/29 16:41:56;;;;;;;11.05;3.00;;;;;;;8.91;64.89;99393.19;10359742;28;20053;-77
2022/12/29 16:47:19;;;;;;;9.38;2.50;;;;;;;9.06;64.50;99391.81;10361513;28;20059;-77
2022/12/29 16:52:24;;;;;;;;;;;;;;;9.32;63.93;99385.06;10336772;28;20125;-78
2022/12/29 16:57:33;;;;;;;6.95;1.70;;;;;;;9.05;65.69;99387.47;10341301;28;19949;-77
2022/12/29 17:02:44;;;;;;;2.55;0.70;;;;;;;8.77;65.70;99389.06;10337076;28;21269;-79
2022/12/29 17:07:48;;;;;;;5.25;1.25;;;;;;;8.64;66.16;99388.50;10337614;28;20061;-77
2022/12/29 17:12:52;;;;;;;4.60;1.20;;;;;;;8.67;65.23;99384.69;10327625;28;20046;-76
2022/12/29 17:17:56;;;;;;;6.75;1.30;;;;;;;8.56;64.87;99410.59;10373651;28;20591;-77
2022/12/29 17:23:00;;;;;;;2.97;1.08;;;;;;;7.82;71.29;99412.56;10357313;28;20135;-77
2022/12/29 17:28:10;;;;;;;6.07;1.92;;;;;;;6.22;90.99;99433.50;10367550;28;20047;-75
2022/12/29 17:33:15;;;;;;;2.97;1.63;;;;;;;5.92;95.35;99437.59;10370675;28;20049;-81
2022/12/29 17:38:22;;;;;;;3.53;2.03;;;;;;;5.81;95.71;99450.88;10372749;28;21260;-79
2022/12/29 17:43:27;;;;;;;3.95;2.60;;;;;;;5.98;96.28;99446.94;10369518;28;20052;-80
2022/12/29 17:48:38;;;;;;;4.60;2.53;;;;;;;6.00;94.61;99439.66;10349276;28;20407;-79
2022/12/29 17:53:41;;;;;;;6.68;3.30;;;;;;;6.18;93.22;99442.72;10348063;28;21350;-80
2022/12/29 17:58:47;;;;;;;9.65;3.10;;;;;;;6.56;92.67;99441.53;10351633;28;20157;-81
2022/12/29 18:03:50;;;;;;;6.60;2.70;;;;;;;6.62;91.69;99446.38;10352083;28;20740;-79
2022/12/29 18:08:53;;;;;;;7.20;2.70;;;;;;;6.62;90.23;99462.41;10350679;28;20133;-79
2022/12/29 18:13:57;;;;;;;6.53;2.50;;;;;;;6.63;89.33;99462.25;10381216;28;20049;-79
2022/12/29 18:19:00;;;;;;;6.32;2.35;;;;;;;6.76;87.31;99469.31;10375913;28;20069;-80
2022/12/29 18:24:03;;;;;;;7.57;2.10;;;;;;;6.97;84.38;99467.63;10367201;28;20050;-80
2022/12/29 18:29:07;;;;;;;5.85;1.55;;;;;;;6.57;83.36;99491.25;10355326;28;20445;-79
2022/12/29 18:34:14;;;;;;;4.72;1.52;;;;;;;6.48;82.48;99465.31;10355537;28;20083;-80
2022/12/29 18:39:17;;;;;;;3.17;0.90;;;;;;;6.48;80.33;99476.81;10344328;28;20188;-80
2022/12/29 18:44:23;;;;;;;7.13;1.83;;;;;;;6.52;80.67;99493.44;10358264;28;20053;-81
2022/12/29 18:49:26;;;;;;;3.10;0.75;;;;;;;6.18;79.36;99510.22;10354077;28;20049;-79
2022/12/29 18:54:31;;;;;;;8.23;1.67;;;;;;;6.42;79.19;99487.09;10361554;28;21196;-78
2022/12/29 18:59:35;;;;;;;5.10;1.10;;;;;;;6.40;77.56;99493.44;10366502;28;20105;-79
2022/12/29 19:04:38;;;;;;;1.58;0.50;;;;;;;6.50;77.26;99498.03;10351068;28;20056;-78
2022/12/29 19:09:41;;;;;;;1.25;0.95;;;;;;;6.29;76.45;99497.91;10344852;28;20050;-77
2022/12/29 19:14:45;;;;;;;5.03;1.38;;;;;;;6.35;76.47;99524.09;10364760;28;20064;-77
2022/12/29 19:19:48;;;;;;;3.03;0.85;;;;;;;6.29;77.17;99517.41;10351272;28;20053;-78
2022/12/29 19:24:51;;;;;;;2.30;0.80;;;;;;;6.08;77.21;99513.72;10346517;28;20055;-75
2022/12/29 19:30:03;;;;;;;6.97;0.95;;;;;;;6.14;77.18;99524.78;10359179;28;20104;-77
2022/12/29 19:35:07;;;;;;;2.92;0.88;;;;;;;5.91;76.89;99533.66;10353164;28;20054;-76
2022/12/29 19:40:13;;;;;;;3.97;1.10;;;;;;;6.23;76.38;99557.06;10351108;28;20442;-76
2022/12/29 19:45:19;;;;;;;1.73;0.70;;;;;;;5.97;75.93;99567.00;10352112;28;20041;-76
2022/12/29 19:50:22;;;;;;;4.85;1.05;;;;;;;6.13;76.35;99563.06;10361595;28;20045;-77
2022/12/29 19:55:24;;;;;;;3.58;0.88;;;;;;;6.33;75.51;99574.03;10353050;28;20139;-76
2022/12/29 20:00:29;;;;;;;4.18;1.23;;;;;;;6.24;76.30;99566.75;10353293;28;20525;-76
2022/12/29 20:05:32;;;;;;;1.13;0.63;;;;;;;5.93;76.31;99577.91;10344662;28;20045;-75
2022/12/29 20:10:34;;;;;;;1.75;0.77;;;;;;;5.86;77.00;99576.63;10375815;28;20588;-74
2022/12/29 20:15:42;;;;;;;8.40;1.35;;;;;;;6.01;76.66;99580.00;10375026;28;20599;-78
2022/12/29 20:20:46;;;;;;;4.72;1.10;;;;;;;6.14;76.52;99596.78;10336222;28;20124;-78
2022/12/29 20:25:55;;;;;;;2.58;0.95;;;;;;;6.14;77.45;99601.25;10373220;28;20412;-75
2022/12/29 20:31:02;;;;;;;6.47;1.63;;;;;;;5.99;77.06;99605.06;10359217;28;20160;-77
2022/12/29 20:36:07;;;;;;;5.47;1.40;;;;;;;5.95;78.15;99613.28;10336237;28;20064;-76
2022/12/29 20:41:10;;;;;;;5.60;1.60;;;;;;;5.85;78.90;99622.94;10359810;28;20147;-76
2022/12/29 20:46:14;;;;;;;3.80;1.40;;;;;;;5.92;77.74;99602.00;10376128;28;20136;-77
2022/12/29 20:51:23;;;;;;;4.28;1.45;;;;;;;6.12;77.75;99622.69;10339732;28;20050;-76
2022/12/29 20:56:27;;;;;;;6.90;1.73;;;;;;;5.81;78.59;99620.59;10341101;28;20545;-75
2022/12/29 21:01:32;;;;;;;8.40;2.00;;;;;;;6.32;77.20;99621.19;10339214;28;20041;-75
2022/12/29 21:06:35;;;;;;;8.13;2.38;;;;;;;5.97;77.11;99636.31;10338523;28;20046;-75
2022/12/29 21:11:38;;;;;;;12.50;3.47;;;;;;;6.27;76.22;99620.69;10338337;28;20106;-75
2022/12/29 21:16:42;;;;;;;21.63;2.97;;;;;;;6.04;76.38;99649.09;10337354;28;20104;-76
2022/12/29 21:21:45;;;;;;;7.57;1.42;;;;;;;6.02;76.04;99644.81;10343710;28;20060;-76
2022/12/29 21:26:48;;;;;;;10.00;2.75;;;;;;;6.35;76.00;99650.31;10355379;28;20061;-76
2022/12/29 21:31:53;;;;;;;6.90;1.95;;;;;;;5.90;76.07;99652.75;10350485;28;20521;-76
2022/12/29 21:36:56;;;;;;;10.52;2.20;;;;;;;6.26;75.17;99664.34;10359173;28;20072;-76
2022/12/29 21:42:00;;;;;;;17.05;2.20;;;;;;;5.98;75.63;99678.00;10355763;28;20034;-77
2022/12/29 21:47:04;;;;;;;9.35;2.30;;;;;;;6.02;74.84;99677.66;10373897;28;20710;-77
2022/12/29 21:52:07;;;;;;;9.40;2.30;;;;;;;6.35;74.12;99674.31;10356738;28;20209;-76
2022/12/29 22:03:04;;;;;;;19.02;2.42;;;;;;;6.07;74.89;99680.00;10354020;28;20068;-75
2022/12/29 22:13:18;;;;;;;8.52;1.73;;;;;;;6.27;73.33;99697.19;10365195;28;20055;-77
2022/12/29 22:18:22;;;;;;;7.88;1.75;;;;;;;6.11;73.37;99698.31;10370701;28;20538;-77
2022/12/29 22:23:25;;;;;;;10.18;2.35;;;;;;;6.33;72.56;99675.41;10353734;28;20034;-77
2022/12/29 22:28:28;;;;;;;13.80;2.17;;;;;;;6.13;73.35;99695.53;10393539;28;20069;-79
2022/12/29 22:33:34;;;;;;;13.98;1.92;;;;;;;6.44;71.85;99702.13;10413955;28;20079;-77
2022/12/29 22:38:36;;;;;;;10.57;1.83;;;;;;;6.11;72.62;99716.13;10424608;28;20521;-77
2022/12/29 22:43:39;;;;;;;8.43;2.20;;;;;;;6.49;71.10;99701.78;10431686;28;20092;-78
2022/12/29 22:48:44;;;;;;;3.22;1.20;;;;;;;6.34;71.54;99711.78;10412599;28;20045;-79
2022/12/29 22:53:48;;;;;;;12.48;2.70;;;;;;;6.49;71.15;99713.31;10396115;28;20042;-81
2022/12/29 22:58:51;;;;;;;16.63;2.28;;;;;;;6.15;72.26;99720.28;10397448;28;20049;-77
2022/12/29 23:03:55;;;;;;;7.82;2.25;;;;;;;6.22;72.13;99721.53;10402320;28;20050;-79
2022/12/29 23:09:20;;;;;;;5.30;1.23;;;;;;;6.36;71.63;99734.72;10388215;28;20108;-79
2022/12/29 23:14:23;;;;;;;6.10;1.15;;;;;;;6.15;72.12;99730.97;10391338;28;20548;-78
2022/12/29 23:19:27;;;;;;;10.38;2.35;;;;;;;5.99;72.69;99755.22;10394334;28;20050;-77
2022/12/29 23:24:30;;;;;;;7.10;1.90;;;;;;;5.95;71.77;99737.72;10396546;28;20080;-78
2022/12/29 23:29:33;;;;;;;11.82;1.77;;;;;;;6.20;71.68;99755.47;10388050;28;20042;-78
2022/12/29 23:34:37;;;;;;;12.98;2.38;;;;;;;6.02;71.94;99760.31;10400541;28;20128;-77
2022/12/29 23:39:40;;;;;;;11.48;2.85;;;;;;;6.40;71.75;99772.69;10402898;28;20115;-77
2022/12/29 23:44:42;;;;;;;11.32;2.40;;;;;;;6.53;70.18;99788.66;10380380;28;20069;-78
2022/12/29 23:49:47;;;;;;;8.75;1.65;;;;;;;6.31;71.07;99814.22;10388841;28;20348;-77
2022/12/29 23:54:49;;;;;;;8.15;1.50;;;;;;;6.07;72.26;99800.84;10369067;28;20092;-77
2022/12/29 23:59:52;;;;;;;14.15;1.88;;;;;;;6.10;72.32;99791.78;10380210;28;20217;-77
